sensor_id;sensor_type;location;lat;lon;timestamp;pressure;altitude;pressure_sealevel;temperature;humidity
24788;BME280;12883;52.662;5.196;2023-08-07T00:02:22;101003.34;;;14.66;100.00
24788;BME280;12883;52.662;5.196;2023-08-07T00:04:48;101048.13;;;14.64;100.00
24788;BME280;12883;52.662;5.196;2023-08-07T00:07:13;101011.63;;;14.58;100.00
24788;BME280;12883;52.662;5.196;2023-08-07T00:09:39;101031.31;;;14.63;100.00
24788;BME280;12883;52.662;5.196;2023-08-07T00:12:04;101023.50;;;14.62;100.00
24788;BME280;12883;52.662;5.196;2023-08-07T00:14:30;101028.25;;;14.60;100.00
24788;BME280;12883;52.662;5.196;2023-08-07T00:16:55;101026.38;;;14.60;100.00
24788;BME280;12883;52.662;5.196;2023-08-07T00:19:20;101028.69;;;14.57;100.00
24788;BME280;12883;52.662;5.196;2023-08-07T00:21:46;101029.72;;;14.56;100.00
24788;BME280;12883;52.662;5.196;2023-08-07T00:24:11;101028.09;;;14.55;100.00
24788;BME280;12883;52.662;5.196;2023-08-07T00:26:36;100997.31;;;14.28;100.00
24788;BME280;12883;52.662;5.196;2023-08-07T00:29:02;101044.31;;;14.53;100.00
24788;BME280;12883;52.662;5.196;2023-08-07T00:31:27;101038.31;;;14.58;100.00
24788;BME280;12883;52.662;5.196;2023-08-07T00:33:56;101001.13;;;14.38;100.00
24788;BME280;12883;52.662;5.196;2023-08-07T00:36:22;100968.22;;;14.20;100.00
24788;BME280;12883;52.662;5.196;2023-08-07T00:38:47;101032.00;;;14.52;100.00
24788;BME280;12883;52.662;5.196;2023-08-07T00:41:12;101035.06;;;14.56;100.00
24788;BME280;12883;52.662;5.196;2023-08-07T00:43:38;101027.06;;;14.56;100.00
24788;BME280;12883;52.662;5.196;2023-08-07T00:46:03;101027.06;;;14.56;100.00
24788;BME280;12883;52.662;5.196;2023-08-07T00:48:29;101001.72;;;14.40;100.00
24788;BME280;12883;52.662;5.196;2023-08-07T00:50:55;101039.53;;;14.62;100.00
24788;BME280;12883;52.662;5.196;2023-08-07T00:53:21;101044.41;;;14.65;100.00
24788;BME280;12883;52.662;5.196;2023-08-07T00:55:47;101010.94;;;14.44;100.00
24788;BME280;12883;52.662;5.196;2023-08-07T00:58:13;101050.59;;;14.65;100.00
24788;BME280;12883;52.662;5.196;2023-08-07T01:00:38;101036.28;;;14.60;100.00
24788;BME280;12883;52.662;5.196;2023-08-07T01:03:07;100983.59;;;14.24;100.00
24788;BME280;12883;52.662;5.196;2023-08-07T01:05:32;101042.00;;;14.63;100.00
24788;BME280;12883;52.662;5.196;2023-08-07T01:07:58;101040.94;;;14.64;100.00
24788;BME280;12883;52.662;5.196;2023-08-07T01:10:51;101036.28;;;14.60;100.00
24788;BME280;12883;52.662;5.196;2023-08-07T01:13:35;101039.16;;;14.58;100.00
24788;BME280;12883;52.662;5.196;2023-08-07T01:16:07;101039.38;;;14.57;100.00
24788;BME280;12883;52.662;5.196;2023-08-07T01:18:36;101026.38;;;14.60;100.00
24788;BME280;12883;52.662;5.196;2023-08-07T01:21:03;101034.19;;;14.62;100.00
24788;BME280;12883;52.662;5.196;2023-08-07T01:23:28;101039.06;;;14.65;100.00
24788;BME280;12883;52.662;5.196;2023-08-07T01:25:54;101037.81;;;14.67;100.00
24788;BME280;12883;52.662;5.196;2023-08-07T01:28:27;101036.34;;;14.71;100.00
24788;BME280;12883;52.662;5.196;2023-08-07T01:30:59;101007.75;;;14.54;100.00
24788;BME280;12883;52.662;5.196;2023-08-07T01:33:35;101041.88;;;14.76;100.00
24788;BME280;12883;52.662;5.196;2023-08-07T01:36:05;101041.03;;;14.76;100.00
24788;BME280;12883;52.662;5.196;2023-08-07T01:38:32;101036.94;;;14.73;100.00
24788;BME280;12883;52.662;5.196;2023-08-07T01:40:58;101030.34;;;14.76;100.00
24788;BME280;12883;52.662;5.196;2023-08-07T01:43:26;101023.44;;;14.68;100.00
24788;BME280;12883;52.662;5.196;2023-08-07T01:45:52;101011.34;;;14.66;100.00
24788;BME280;12883;52.662;5.196;2023-08-07T01:48:17;100987.06;;;14.49;100.00
24788;BME280;12883;52.662;5.196;2023-08-07T01:50:43;101005.41;;;14.64;100.00
24788;BME280;12883;52.662;5.196;2023-08-07T01:53:08;101013.34;;;14.70;100.00
24788;BME280;12883;52.662;5.196;2023-08-07T01:55:33;100994.84;;;14.51;100.00
24788;BME280;12883;52.662;5.196;2023-08-07T01:57:59;101006.00;;;14.66;100.00
24788;BME280;12883;52.662;5.196;2023-08-07T02:00:24;101007.84;;;14.65;100.00
24788;BME280;12883;52.662;5.196;2023-08-07T02:02:49;100999.63;;;14.67;100.00
24788;BME280;12883;52.662;5.196;2023-08-07T02:05:15;101004.09;;;14.73;100.00
24788;BME280;12883;52.662;5.196;2023-08-07T02:07:41;100992.50;;;14.61;100.00
24788;BME280;12883;52.662;5.196;2023-08-07T02:10:07;101006.16;;;14.71;100.00
24788;BME280;12883;52.662;5.196;2023-08-07T02:12:33;101011.72;;;14.69;100.00
24788;BME280;12883;52.662;5.196;2023-08-07T02:14:58;101016.81;;;14.71;100.00
24788;BME280;12883;52.662;5.196;2023-08-07T02:17:25;101014.41;;;14.69;100.00
24788;BME280;12883;52.662;5.196;2023-08-07T02:19:50;101005.78;;;14.67;100.00
24788;BME280;12883;52.662;5.196;2023-08-07T02:22:16;101030.81;;;14.73;100.00
24788;BME280;12883;52.662;5.196;2023-08-07T02:24:41;101029.97;;;14.72;100.00
24788;BME280;12883;52.662;5.196;2023-08-07T02:27:07;101018.03;;;14.75;100.00
24788;BME280;12883;52.662;5.196;2023-08-07T02:29:32;101015.75;;;14.78;100.00
24788;BME280;12883;52.662;5.196;2023-08-07T02:32:01;101013.56;;;14.69;100.00
24788;BME280;12883;52.662;5.196;2023-08-07T02:34:28;101030.81;;;14.73;100.00
24788;BME280;12883;52.662;5.196;2023-08-07T02:36:53;101027.38;;;14.83;100.00
24788;BME280;12883;52.662;5.196;2023-08-07T02:39:18;101026.97;;;14.87;100.00
24788;BME280;12883;52.662;5.196;2023-08-07T02:41:43;101033.31;;;14.85;100.00
24788;BME280;12883;52.662;5.196;2023-08-07T02:44:09;101039.88;;;14.89;100.00
24788;BME280;12883;52.662;5.196;2023-08-07T02:46:34;101045.22;;;14.89;100.00
24788;BME280;12883;52.662;5.196;2023-08-07T02:49:01;101040.91;;;14.88;100.00
24788;BME280;12883;52.662;5.196;2023-08-07T02:51:26;101042.09;;;14.92;100.00
24788;BME280;12883;52.662;5.196;2023-08-07T02:53:52;101033.47;;;14.90;100.00
24788;BME280;12883;52.662;5.196;2023-08-07T02:56:17;101034.97;;;14.87;100.00
24788;BME280;12883;52.662;5.196;2023-08-07T02:58:42;101036.00;;;14.85;100.00
24788;BME280;12883;52.662;5.196;2023-08-07T03:01:08;101038.28;;;14.82;100.00
24788;BME280;12883;52.662;5.196;2023-08-07T03:03:33;101026.63;;;14.77;100.00
24788;BME280;12883;52.662;5.196;2023-08-07T03:05:59;101036.06;;;14.79;100.00
24788;BME280;12883;52.662;5.196;2023-08-07T03:08:24;101032.81;;;14.77;100.00
24788;BME280;12883;52.662;5.196;2023-08-07T03:10:54;101036.53;;;14.76;100.00
24788;BME280;12883;52.662;5.196;2023-08-07T03:13:21;101044.09;;;14.79;100.00
24788;BME280;12883;52.662;5.196;2023-08-07T03:15:46;101034.88;;;14.75;100.00
24788;BME280;12883;52.662;5.196;2023-08-07T03:18:14;101043.88;;;14.81;100.00
24788;BME280;12883;52.662;5.196;2023-08-07T03:20:39;101023.16;;;14.76;100.00
24788;BME280;12883;52.662;5.196;2023-08-07T03:23:05;101038.53;;;14.81;100.00
24788;BME280;12883;52.662;5.196;2023-08-07T03:25:30;101042.25;;;14.80;100.00
24788;BME280;12883;52.662;5.196;2023-08-07T03:27:55;101034.44;;;14.78;100.00
24788;BME280;12883;52.662;5.196;2023-08-07T03:30:21;101039.56;;;14.80;100.00
24788;BME280;12883;52.662;5.196;2023-08-07T03:32:46;101041.50;;;14.73;100.00
24788;BME280;12883;52.662;5.196;2023-08-07T03:35:11;101032.34;;;14.80;100.00
24788;BME280;12883;52.662;5.196;2023-08-07T03:37:37;101032.44;;;14.74;100.00
24788;BME280;12883;52.662;5.196;2023-08-07T03:40:02;101038.38;;;14.76;100.00
24788;BME280;12883;52.662;5.196;2023-08-07T03:42:28;101035.91;;;14.74;100.00
24788;BME280;12883;52.662;5.196;2023-08-07T03:44:53;101035.47;;;14.77;100.00
24788;BME280;12883;52.662;5.196;2023-08-07T03:47:18;101035.25;;;14.78;100.00
24788;BME280;12883;52.662;5.196;2023-08-07T03:49:44;101033.59;;;14.77;100.00
24788;BME280;12883;52.662;5.196;2023-08-07T03:52:09;101023.75;;;14.78;100.00
24788;BME280;12883;52.662;5.196;2023-08-07T03:54:35;101031.97;;;14.77;100.00
24788;BME280;12883;52.662;5.196;2023-08-07T03:57:00;100991.91;;;14.59;100.00
24788;BME280;12883;52.662;5.196;2023-08-07T03:59:26;101035.25;;;14.78;100.00
24788;BME280;12883;52.662;5.196;2023-08-07T04:01:51;101030.94;;;14.77;100.00
24788;BME280;12883;52.662;5.196;2023-08-07T04:04:16;101036.53;;;14.76;100.00
24788;BME280;12883;52.662;5.196;2023-08-07T04:06:42;101029.31;;;14.77;100.00
24788;BME280;12883;52.662;5.196;2023-08-07T04:09:09;101031.97;;;14.77;100.00
24788;BME280;12883;52.662;5.196;2023-08-07T04:11:35;101036.53;;;14.76;100.00
24788;BME280;12883;52.662;5.196;2023-08-07T04:14:01;101033.84;;;14.76;100.00
24788;BME280;12883;52.662;5.196;2023-08-07T04:16:27;101037.78;;;14.74;100.00
24788;BME280;12883;52.662;5.196;2023-08-07T04:18:52;101043.53;;;14.71;100.00
24788;BME280;12883;52.662;5.196;2023-08-07T04:21:18;101055.06;;;14.71;100.00
24788;BME280;12883;52.662;5.196;2023-08-07T04:23:43;101040.94;;;14.64;100.00
24788;BME280;12883;52.662;5.196;2023-08-07T04:26:09;101050.22;;;14.62;100.00
24788;BME280;12883;52.662;5.196;2023-08-07T04:28:34;101048.88;;;14.71;100.00
24788;BME280;12883;52.662;5.196;2023-08-07T04:30:59;101051.44;;;14.66;100.00
24788;BME280;12883;52.662;5.196;2023-08-07T04:33:25;101072.34;;;14.69;100.00
24788;BME280;12883;52.662;5.196;2023-08-07T04:35:50;101069.06;;;14.67;100.00
24788;BME280;12883;52.662;5.196;2023-08-07T04:38:16;101068.91;;;14.62;100.00
24788;BME280;12883;52.662;5.196;2023-08-07T04:40:46;101077.69;;;14.69;100.00
24788;BME280;12883;52.662;5.196;2023-08-07T04:43:12;101024.59;;;14.30;100.00
24788;BME280;12883;52.662;5.196;2023-08-07T04:45:38;101076.47;;;14.65;100.00
24788;BME280;12883;52.662;5.196;2023-08-07T04:48:05;101089.91;;;14.58;100.00
24788;BME280;12883;52.662;5.196;2023-08-07T04:50:30;101101.63;;;14.57;100.00
24788;BME280;12883;52.662;5.196;2023-08-07T04:52:55;101107.75;;;14.58;100.00
24788;BME280;12883;52.662;5.196;2023-08-07T04:55:20;101063.94;;;14.41;100.00
24788;BME280;12883;52.662;5.196;2023-08-07T04:57:46;101096.59;;;14.67;100.00
24788;BME280;12883;52.662;5.196;2023-08-07T05:00:12;101057.28;;;14.50;100.00
24788;BME280;12883;52.662;5.196;2023-08-07T05:02:38;101103.94;;;14.72;100.00
24788;BME280;12883;52.662;5.196;2023-08-07T05:05:04;101104.56;;;14.74;100.00
24788;BME280;12883;52.662;5.196;2023-08-07T05:07:30;101112.78;;;14.72;100.00
24788;BME280;12883;52.662;5.196;2023-08-07T05:09:57;101107.81;;;14.76;100.00
24788;BME280;12883;52.662;5.196;2023-08-07T05:12:24;101112.50;;;14.80;100.00
24788;BME280;12883;52.662;5.196;2023-08-07T05:14:50;101119.72;;;14.80;100.00
24788;BME280;12883;52.662;5.196;2023-08-07T05:17:15;101107.25;;;14.74;100.00
24788;BME280;12883;52.662;5.196;2023-08-07T05:19:40;101056.16;;;14.39;100.00
24788;BME280;12883;52.662;5.196;2023-08-07T05:22:06;101132.91;;;14.75;100.00
24788;BME280;12883;52.662;5.196;2023-08-07T05:24:31;101139.72;;;14.71;100.00
24788;BME280;12883;52.662;5.196;2023-08-07T05:27:05;101119.72;;;14.55;100.00
24788;BME280;12883;52.662;5.196;2023-08-07T05:29:30;101132.53;;;14.71;100.00
24788;BME280;12883;52.662;5.196;2023-08-07T05:31:55;101142.56;;;14.76;100.00
24788;BME280;12883;52.662;5.196;2023-08-07T05:34:21;101140.06;;;14.81;100.00
24788;BME280;12883;52.662;5.196;2023-08-07T05:36:46;101130.34;;;14.86;100.00
24788;BME280;12883;52.662;5.196;2023-08-07T05:39:11;101148.28;;;15.03;100.00
24788;BME280;12883;52.662;5.196;2023-08-07T05:41:37;101147.97;;;15.11;100.00
24788;BME280;12883;52.662;5.196;2023-08-07T05:44:04;101152.66;;;15.16;100.00
24788;BME280;12883;52.662;5.196;2023-08-07T05:46:30;101160.84;;;15.21;100.00
24788;BME280;12883;52.662;5.196;2023-08-07T05:48:55;101172.97;;;15.23;100.00
24788;BME280;12883;52.662;5.196;2023-08-07T05:51:21;101173.38;;;15.20;100.00
24788;BME280;12883;52.662;5.196;2023-08-07T05:53:46;101181.78;;;15.24;100.00
24788;BME280;12883;52.662;5.196;2023-08-07T05:56:12;101182.91;;;15.16;100.00
24788;BME280;12883;52.662;5.196;2023-08-07T05:58:37;101177.47;;;15.23;100.00
24788;BME280;12883;52.662;5.196;2023-08-07T06:01:02;101175.06;;;15.21;100.00
24788;BME280;12883;52.662;5.196;2023-08-07T06:03:28;101193.69;;;15.28;100.00
24788;BME280;12883;52.662;5.196;2023-08-07T06:05:53;101195.31;;;15.35;100.00
24788;BME280;12883;52.662;5.196;2023-08-07T06:08:19;101162.97;;;15.12;100.00
24788;BME280;12883;52.662;5.196;2023-08-07T06:10:44;101202.94;;;15.32;100.00
24788;BME280;12883;52.662;5.196;2023-08-07T06:13:09;101211.50;;;15.40;100.00
24788;BME280;12883;52.662;5.196;2023-08-07T06:15:35;101214.16;;;15.40;100.00
24788;BME280;12883;52.662;5.196;2023-08-07T06:18:00;101209.84;;;15.39;100.00
24788;BME280;12883;52.662;5.196;2023-08-07T06:20:26;101228.44;;;15.52;100.00
24788;BME280;12883;52.662;5.196;2023-08-07T06:22:51;101230.09;;;15.53;100.00
24788;BME280;12883;52.662;5.196;2023-08-07T06:25:17;101222.81;;;15.60;100.00
24788;BME280;12883;52.662;5.196;2023-08-07T06:27:44;101224.38;;;15.86;100.00
24788;BME280;12883;52.662;5.196;2023-08-07T06:30:10;101235.81;;;15.93;100.00
24788;BME280;12883;52.662;5.196;2023-08-07T06:32:36;101235.47;;;16.07;100.00
24788;BME280;12883;52.662;5.196;2023-08-07T06:35:02;101174.50;;;15.73;100.00
24788;BME280;12883;52.662;5.196;2023-08-07T06:37:28;101177.78;;;15.75;100.00
24788;BME280;12883;52.662;5.196;2023-08-07T06:39:53;101191.47;;;15.85;100.00
24788;BME280;12883;52.662;5.196;2023-08-07T06:42:18;101221.50;;;16.05;100.00
24788;BME280;12883;52.662;5.196;2023-08-07T06:44:44;101265.19;;;16.35;100.00
24788;BME280;12883;52.662;5.196;2023-08-07T06:47:09;101270.53;;;16.35;100.00
24788;BME280;12883;52.662;5.196;2023-08-07T06:49:35;101266.44;;;16.33;100.00
24788;BME280;12883;52.662;5.196;2023-08-07T06:52:01;101268.91;;;16.34;100.00
24788;BME280;12883;52.662;5.196;2023-08-07T06:54:27;101288.34;;;16.30;100.00
24788;BME280;12883;52.662;5.196;2023-08-07T06:56:52;101292.44;;;16.32;100.00
24788;BME280;12883;52.662;5.196;2023-08-07T06:59:17;101299.78;;;16.37;100.00
24788;BME280;12883;52.662;5.196;2023-08-07T07:01:43;101302.69;;;16.35;100.00
24788;BME280;12883;52.662;5.196;2023-08-07T07:04:08;101313.13;;;16.43;100.00
24788;BME280;12883;52.662;5.196;2023-08-07T07:06:33;101291.00;;;16.30;100.00
24788;BME280;12883;52.662;5.196;2023-08-07T07:08:59;101318.94;;;16.40;100.00
24788;BME280;12883;52.662;5.196;2023-08-07T07:11:25;101319.91;;;16.46;100.00
24788;BME280;12883;52.662;5.196;2023-08-07T07:13:51;101328.88;;;16.51;100.00
24788;BME280;12883;52.662;5.196;2023-08-07T07:16:20;101331.72;;;16.56;100.00
24788;BME280;12883;52.662;5.196;2023-08-07T07:18:50;101335.81;;;16.59;100.00
24788;BME280;12883;52.662;5.196;2023-08-07T07:21:16;101341.75;;;16.61;100.00
24788;BME280;12883;52.662;5.196;2023-08-07T07:23:42;101287.97;;;16.26;100.00
24788;BME280;12883;52.662;5.196;2023-08-07T07:26:08;101343.16;;;16.63;100.00
24788;BME280;12883;52.662;5.196;2023-08-07T07:28:33;101349.13;;;16.65;100.00
24788;BME280;12883;52.662;5.196;2023-08-07T07:30:58;101355.47;;;16.71;100.00
24788;BME280;12883;52.662;5.196;2023-08-07T07:33:24;101356.88;;;16.73;100.00
24788;BME280;12883;52.662;5.196;2023-08-07T07:35:49;101344.41;;;16.79;100.00
24788;BME280;12883;52.662;5.196;2023-08-07T07:38:14;101350.94;;;16.83;100.00
24788;BME280;12883;52.662;5.196;2023-08-07T07:40:41;101354.94;;;16.80;100.00
24788;BME280;12883;52.662;5.196;2023-08-07T07:43:06;101354.63;;;16.70;100.00
24788;BME280;12883;52.662;5.196;2023-08-07T07:45:32;101373.81;;;16.85;100.00
24788;BME280;12883;52.662;5.196;2023-08-07T07:48:01;101299.78;;;16.37;100.00
24788;BME280;12883;52.662;5.196;2023-08-07T07:50:26;101370.72;;;17.00;100.00
24788;BME280;12883;52.662;5.196;2023-08-07T07:52:52;101378.19;;;16.98;100.00
24788;BME280;12883;52.662;5.196;2023-08-07T07:55:17;101380.94;;;16.91;100.00
24788;BME280;12883;52.662;5.196;2023-08-07T07:57:42;101397.81;;;16.80;100.00
24788;BME280;12883;52.662;5.196;2023-08-07T08:00:08;101390.72;;;16.68;100.00
24788;BME280;12883;52.662;5.196;2023-08-07T08:02:36;101398.19;;;16.48;100.00
24788;BME280;12883;52.662;5.196;2023-08-07T08:05:01;101398.78;;;16.50;100.00
24788;BME280;12883;52.662;5.196;2023-08-07T08:07:27;101421.47;;;16.65;100.00
24788;BME280;12883;52.662;5.196;2023-08-07T08:09:52;101421.47;;;16.65;100.00
24788;BME280;12883;52.662;5.196;2023-08-07T08:12:17;101431.09;;;16.73;100.00
24788;BME280;12883;52.662;5.196;2023-08-07T08:14:43;101430.09;;;16.85;100.00
24788;BME280;12883;52.662;5.196;2023-08-07T08:17:08;101422.06;;;16.85;100.00
24788;BME280;12883;52.662;5.196;2023-08-07T08:19:33;101432.34;;;16.88;100.00
24788;BME280;12883;52.662;5.196;2023-08-07T08:21:59;101440.09;;;16.96;100.00
24788;BME280;12883;52.662;5.196;2023-08-07T08:24:24;101435.03;;;16.88;100.00
24788;BME280;12883;52.662;5.196;2023-08-07T08:26:50;101431.56;;;16.99;100.00
24788;BME280;12883;52.662;5.196;2023-08-07T08:29:16;101434.25;;;16.99;100.00
24788;BME280;12883;52.662;5.196;2023-08-07T08:31:42;101445.66;;;17.13;100.00
24788;BME280;12883;52.662;5.196;2023-08-07T08:34:07;101449.59;;;17.10;100.00
24788;BME280;12883;52.662;5.196;2023-08-07T08:36:33;101470.53;;;17.02;100.00
24788;BME280;12883;52.662;5.196;2023-08-07T08:38:58;101466.81;;;17.03;100.00
24788;BME280;12883;52.662;5.196;2023-08-07T08:41:23;101477.84;;;17.13;100.00
24788;BME280;12883;52.662;5.196;2023-08-07T08:43:51;101450.13;;;17.01;100.00
24788;BME280;12883;52.662;5.196;2023-08-07T08:46:19;101417.44;;;16.92;100.00
24788;BME280;12883;52.662;5.196;2023-08-07T08:48:50;101470.72;;;17.36;100.00
24788;BME280;12883;52.662;5.196;2023-08-07T08:51:16;101475.78;;;17.44;100.00
24788;BME280;12883;52.662;5.196;2023-08-07T08:53:44;101455.34;;;17.14;100.00
24788;BME280;12883;52.662;5.196;2023-08-07T08:56:11;101492.03;;;17.31;100.00
24788;BME280;12883;52.662;5.196;2023-08-07T08:58:37;101484.53;;;17.40;100.00
24788;BME280;12883;52.662;5.196;2023-08-07T09:01:04;101485.63;;;17.32;100.00
24788;BME280;12883;52.662;5.196;2023-08-07T09:03:30;101461.38;;;17.09;100.00
24788;BME280;12883;52.662;5.196;2023-08-07T09:05:58;101496.69;;;17.42;100.00
24788;BME280;12883;52.662;5.196;2023-08-07T09:08:26;101500.53;;;17.46;100.00
24788;BME280;12883;52.662;5.196;2023-08-07T09:10:52;101515.47;;;17.42;100.00
24788;BME280;12883;52.662;5.196;2023-08-07T09:13:21;101499.03;;;17.50;100.00
24788;BME280;12883;52.662;5.196;2023-08-07T09:15:48;101504.81;;;17.65;100.00
24788;BME280;12883;52.662;5.196;2023-08-07T09:18:16;101507.50;;;17.65;100.00
24788;BME280;12883;52.662;5.196;2023-08-07T09:20:42;101516.47;;;17.59;100.00
24788;BME280;12883;52.662;5.196;2023-08-07T09:23:07;101517.38;;;17.53;100.00
24788;BME280;12883;52.662;5.196;2023-08-07T09:25:34;101464.84;;;17.28;100.00
24788;BME280;12883;52.662;5.196;2023-08-07T09:28:04;101529.88;;;17.59;100.00
24788;BME280;12883;52.662;5.196;2023-08-07T09:30:31;101524.38;;;17.54;100.00
24788;BME280;12883;52.662;5.196;2023-08-07T09:32:57;101495.63;;;17.43;100.00
24788;BME280;12883;52.662;5.196;2023-08-07T09:35:23;101537.84;;;17.66;100.00
24788;BME280;12883;52.662;5.196;2023-08-07T09:37:50;101536.66;;;17.62;100.00
24788;BME280;12883;52.662;5.196;2023-08-07T09:40:15;101514.63;;;17.42;100.00
24788;BME280;12883;52.662;5.196;2023-08-07T09:42:41;101495.84;;;17.42;100.00
24788;BME280;12883;52.662;5.196;2023-08-07T09:45:33;101538.44;;;17.68;100.00
24788;BME280;12883;52.662;5.196;2023-08-07T09:48:03;101539.66;;;17.83;100.00
24788;BME280;12883;52.662;5.196;2023-08-07T09:50:30;101533.13;;;17.79;100.00
24788;BME280;12883;52.662;5.196;2023-08-07T09:52:56;101534.28;;;17.83;100.00
24788;BME280;12883;52.662;5.196;2023-08-07T09:55:23;101533.53;;;18.06;100.00
24788;BME280;12883;52.662;5.196;2023-08-07T09:57:49;101532.84;;;18.10;100.00
24788;BME280;12883;52.662;5.196;2023-08-07T10:00:15;101547.34;;;18.21;100.00
24788;BME280;12883;52.662;5.196;2023-08-07T10:02:42;101548.28;;;18.15;100.00
24788;BME280;12883;52.662;5.196;2023-08-07T10:05:09;101522.22;;;18.15;100.00
24788;BME280;12883;52.662;5.196;2023-08-07T10:07:39;101546.25;;;18.10;100.00
24788;BME280;12883;52.662;5.196;2023-08-07T10:10:06;101470.09;;;17.52;100.00
24788;BME280;12883;52.662;5.196;2023-08-07T10:12:32;101551.63;;;18.10;100.00
24788;BME280;12883;52.662;5.196;2023-08-07T10:14:59;101541.38;;;18.07;100.00
24788;BME280;12883;52.662;5.196;2023-08-07T10:17:25;101575.38;;;18.13;100.00
24788;BME280;12883;52.662;5.196;2023-08-07T10:19:51;101504.22;;;17.63;100.00
24788;BME280;12883;52.662;5.196;2023-08-07T10:22:22;101550.38;;;18.13;100.00
24788;BME280;12883;52.662;5.196;2023-08-07T10:24:50;101559.53;;;18.35;100.00
24788;BME280;12883;52.662;5.196;2023-08-07T10:27:17;101567.13;;;18.26;100.00
24788;BME280;12883;52.662;5.196;2023-08-07T10:29:47;101567.13;;;18.26;100.00
24788;BME280;12883;52.662;5.196;2023-08-07T10:32:15;101505.72;;;18.00;100.00
24788;BME280;12883;52.662;5.196;2023-08-07T10:34:47;101566.03;;;18.16;100.00
24788;BME280;12883;52.662;5.196;2023-08-07T10:37:40;101572.84;;;18.30;100.00
24788;BME280;12883;52.662;5.196;2023-08-07T10:40:06;101543.34;;;18.00;100.00
24788;BME280;12883;52.662;5.196;2023-08-07T10:45:18;101565.97;;;18.45;100.00
24788;BME280;12883;52.662;5.196;2023-08-07T10:48:10;101571.97;;;18.06;100.00
24788;BME280;12883;52.662;5.196;2023-08-07T10:50:56;101595.34;;;18.17;100.00
24788;BME280;12883;52.662;5.196;2023-08-07T10:53:29;101594.19;;;18.13;100.00
24788;BME280;12883;52.662;5.196;2023-08-07T10:55:55;101572.56;;;18.08;100.00
24788;BME280;12883;52.662;5.196;2023-08-07T10:58:30;101586.41;;;18.35;100.00
24788;BME280;12883;52.662;5.196;2023-08-07T11:04:11;101591.03;;;18.57;100.00
24788;BME280;12883;52.662;5.196;2023-08-07T11:06:38;101594.31;;;18.71;100.00
24788;BME280;12883;52.662;5.196;2023-08-07T11:09:05;101599.91;;;18.46;100.00
24788;BME280;12883;52.662;5.196;2023-08-07T11:11:45;101606.56;;;18.44;100.00
24788;BME280;12883;52.662;5.196;2023-08-07T11:14:16;101627.22;;;18.43;100.00
24788;BME280;12883;52.662;5.196;2023-08-07T11:16:43;101572.50;;;18.26;100.00
24788;BME280;12883;52.662;5.196;2023-08-07T11:19:08;101566.41;;;18.19;100.00
24788;BME280;12883;52.662;5.196;2023-08-07T11:21:34;101603.53;;;18.52;100.00
24788;BME280;12883;52.662;5.196;2023-08-07T11:24:00;101550.13;;;18.14;100.00
24788;BME280;12883;52.662;5.196;2023-08-07T11:26:26;101592.34;;;18.25;100.00
24788;BME280;12883;52.662;5.196;2023-08-07T11:28:53;101625.47;;;18.37;100.00
24788;BME280;12883;52.662;5.196;2023-08-07T11:31:19;101623.25;;;18.34;100.00
24788;BME280;12883;52.662;5.196;2023-08-07T11:33:45;101527.38;;;17.76;100.00
24788;BME280;12883;52.662;5.196;2023-08-07T11:36:11;101559.84;;;18.15;100.00
24788;BME280;12883;52.662;5.196;2023-08-07T11:38:41;101557.91;;;18.34;100.00
24788;BME280;12883;52.662;5.196;2023-08-07T11:41:11;101577.00;;;18.78;100.00
24788;BME280;12883;52.662;5.196;2023-08-07T11:43:37;101585.66;;;19.03;100.00
24788;BME280;12883;52.662;5.196;2023-08-07T11:46:05;101593.16;;;19.01;100.00
24788;BME280;12883;52.662;5.196;2023-08-07T11:48:33;101604.59;;;18.85;100.00
24788;BME280;12883;52.662;5.196;2023-08-07T11:50:59;101579.13;;;18.76;100.00
24788;BME280;12883;52.662;5.196;2023-08-07T11:53:27;101590.19;;;19.03;100.00
24788;BME280;12883;52.662;5.196;2023-08-07T11:55:55;101603.31;;;18.88;100.00
24788;BME280;12883;52.662;5.196;2023-08-07T11:58:21;101602.97;;;18.84;100.00
24788;BME280;12883;52.662;5.196;2023-08-07T12:00:47;101600.41;;;18.89;100.00
24788;BME280;12883;52.662;5.196;2023-08-07T12:03:32;101593.84;;;18.85;100.00
24788;BME280;12883;52.662;5.196;2023-08-07T12:06:02;101588.09;;;18.59;100.00
24788;BME280;12883;52.662;5.196;2023-08-07T12:08:33;101593.34;;;18.65;100.00
24788;BME280;12883;52.662;5.196;2023-08-07T12:11:01;101596.31;;;18.75;100.00
24788;BME280;12883;52.662;5.196;2023-08-07T12:13:27;101595.38;;;18.81;100.00
24788;BME280;12883;52.662;5.196;2023-08-07T12:15:57;101608.00;;;18.92;100.00
24788;BME280;12883;52.662;5.196;2023-08-07T12:18:23;101599.22;;;18.74;100.00
24788;BME280;12883;52.662;5.196;2023-08-07T12:20:50;101599.31;;;18.56;100.00
24788;BME280;12883;52.662;5.196;2023-08-07T12:23:17;101578.44;;;18.28;100.00
24788;BME280;12883;52.662;5.196;2023-08-07T12:25:43;101600.56;;;18.42;100.00
24788;BME280;12883;52.662;5.196;2023-08-07T12:28:09;101607.84;;;18.64;100.00
24788;BME280;12883;52.662;5.196;2023-08-07T12:30:36;101624.47;;;18.61;100.00
24788;BME280;12883;52.662;5.196;2023-08-07T12:33:01;101624.13;;;18.58;100.00
24788;BME280;12883;52.662;5.196;2023-08-07T12:35:33;101628.06;;;18.44;100.00
24788;BME280;12883;52.662;5.196;2023-08-07T12:37:59;101617.69;;;18.70;100.00
24788;BME280;12883;52.662;5.196;2023-08-07T12:40:26;101614.53;;;18.73;100.00
24788;BME280;12883;52.662;5.196;2023-08-07T12:42:51;101616.53;;;18.89;100.00
24788;BME280;12883;52.662;5.196;2023-08-07T12:45:16;101612.44;;;18.75;100.00